Time;durP1;ratioP1;P1;durP2;ratioP2;P2;SDS_P1;SDS_P2;PMS_P1;PMS_P2;Temp;Humidity;BMP_temperature;BMP_pressure;BME280_temperature;BME280_humidity;BME280_pressure;Samples;Min_cycle;Max_cycle;Signal;HPM_P1;HPM_P2
2024/02/08 00:00:33;;;;;;;8.00;4.80;;;;;;;4.75;70.80;97938.58;230698;203;140207;-67
2024/02/08 00:05:56;;;;;;;10.70;4.60;;;;;;;4.76;70.72;97930.45;230077;203;154150;-65
2024/02/08 00:11:00;;;;;;;7.50;4.80;;;;;;;4.79;70.69;97935.86;230130;202;137755;-69
2024/02/08 00:16:03;;;;;;;7.70;4.90;;;;;;;4.73;70.73;97931.09;231700;202;137021;-68
2024/02/08 00:21:09;;;;;;;9.40;5.10;;;;;;;4.65;70.67;97927.39;231686;199;151223;-69
2024/02/08 00:26:12;;;;;;;;;;;;;;;4.58;70.95;97931.64;231703;198;136267;-69
2024/02/08 00:31:15;;;;;;;8.10;5.50;;;;;;;4.49;71.25;97923.48;231785;202;136318;-69
2024/02/08 00:36:18;;;;;;;10.10;6.10;;;;;;;4.49;71.23;97930.34;231655;205;151379;-66
2024/02/08 00:41:24;;;;;;;10.80;5.90;;;;;;;4.50;71.38;97926.41;231694;199;139497;-68
2024/02/08 00:46:27;;;;;;;9.50;5.70;;;;;;;4.56;71.33;97934.02;231674;202;137097;-66
2024/02/08 00:51:31;;;;;;;7.10;4.80;;;;;;;4.66;71.21;97934.50;231864;198;152044;-70
2024/02/08 00:56:34;;;;;;;8.80;5.30;;;;;;;4.67;70.98;97933.55;231943;198;140062;-69
2024/02/08 01:01:39;;;;;;;9.50;5.40;;;;;;;4.69;70.79;97938.59;231777;202;136626;-69
2024/02/08 01:06:43;;;;;;;8.90;5.30;;;;;;;4.60;70.82;97937.84;231599;199;151562;-70
2024/02/08 01:11:46;;;;;;;9.40;5.10;;;;;;;4.48;70.98;97942.87;231686;202;137110;-65
2024/02/08 01:16:51;;;;;;;7.30;4.70;;;;;;;4.45;71.26;97943.76;231633;199;137002;-65
2024/02/08 01:21:57;;;;;;;8.00;4.60;;;;;;;4.39;71.18;97934.73;231635;198;151536;-65
2024/02/08 01:27:01;;;;;;;6.90;4.10;;;;;;;4.34;71.52;97940.83;230697;202;137284;-63
2024/02/08 01:32:05;;;;;;;6.20;4.00;;;;;;;4.34;71.46;97937.50;230159;202;136919;-65
2024/02/08 01:37:10;;;;;;;6.90;4.10;;;;;;;4.27;71.83;97935.05;231815;199;151265;-63
2024/02/08 01:42:15;;;;;;;6.40;4.40;;;;;;;4.21;72.12;97930.33;231895;198;137608;-63
2024/02/08 01:47:19;;;;;;;5.70;4.10;;;;;;;4.24;72.20;97923.85;231482;199;137704;-64
2024/02/08 01:52:23;;;;;;;6.50;4.30;;;;;;;4.26;72.32;97925.65;231708;202;151332;-64
2024/02/08 01:57:26;;;;;;;8.50;4.60;;;;;;;4.32;72.22;97918.46;231752;198;136560;-64
2024/02/08 02:02:35;;;;;;;6.80;4.20;;;;;;;4.38;72.06;97912.73;231219;203;137089;-66
2024/02/08 02:07:39;;;;;;;5.60;4.10;;;;;;;4.37;72.02;97916.46;231658;199;151882;-64
2024/02/08 02:12:45;;;;;;;6.40;4.20;;;;;;;4.32;72.05;97915.84;231471;206;136906;-63
2024/02/08 02:17:48;;;;;;;6.00;4.00;;;;;;;4.32;72.01;97917.05;231730;202;136930;-63
2024/02/08 02:22:52;;;;;;;5.50;4.20;;;;;;;4.32;71.86;97926.02;231605;199;151732;-65
2024/02/08 02:28:00;;;;;;;7.20;4.40;;;;;;;4.25;71.97;97926.05;231534;199;137880;-64
2024/02/08 02:33:05;;;;;;;8.80;4.60;;;;;;;4.23;72.14;97920.91;231751;199;137003;-61
2024/02/08 02:38:12;;;;;;;6.00;3.60;;;;;;;4.25;72.20;97925.52;231793;203;151352;-61
2024/02/08 02:43:16;;;;;;;5.70;4.30;;;;;;;4.32;72.06;97925.69;231822;198;137965;-62
2024/02/08 02:48:21;;;;;;;6.30;4.40;;;;;;;4.37;71.94;97923.64;231706;199;137343;-64
2024/02/08 02:53:24;;;;;;;7.50;4.90;;;;;;;4.41;71.71;97920.41;231803;199;151532;-63
2024/02/08 02:58:27;;;;;;;7.80;4.80;;;;;;;4.41;71.71;97921.48;231700;205;136806;-62
2024/02/08 03:03:40;;;;;;;8.70;4.50;;;;;;;4.37;71.85;97919.27;231626;199;139934;-63
2024/02/08 03:08:45;;;;;;;7.10;4.90;;;;;;;4.34;71.89;97913.09;231882;198;151222;-63
2024/02/08 03:13:49;;;;;;;6.60;4.30;;;;;;;4.29;72.05;97911.44;231834;199;136537;-63
2024/02/08 03:18:52;;;;;;;7.90;4.90;;;;;;;4.25;72.22;97914.48;231811;202;136782;-63
2024/02/08 03:23:56;;;;;;;6.40;4.80;;;;;;;4.27;72.20;97913.49;231795;198;151450;-65
2024/02/08 03:29:00;;;;;;;7.30;5.00;;;;;;;4.29;72.21;97919.34;231477;198;137565;-65
2024/02/08 03:34:04;;;;;;;7.00;5.00;;;;;;;4.32;72.23;97921.80;232084;198;272290;-65
2024/02/08 03:39:13;;;;;;;6.70;4.80;;;;;;;4.38;72.29;97916.77;232053;198;151312;-65
2024/02/08 03:44:16;;;;;;;8.50;5.30;;;;;;;4.44;72.10;97923.41;232055;200;137360;-65
2024/02/08 03:49:20;;;;;;;8.40;5.50;;;;;;;4.51;71.95;97922.69;231981;201;137255;-63
2024/02/08 03:54:24;;;;;;;9.00;5.40;;;;;;;4.52;71.70;97925.98;231971;201;151498;-64
2024/02/08 03:59:28;;;;;;;7.70;5.20;;;;;;;4.50;71.87;97930.96;231729;197;136385;-64
2024/02/08 04:04:59;;;;;;;8.80;5.10;;;;;;;4.52;71.95;97932.14;231821;204;136843;-62
2024/02/08 04:10:19;;;;;;;31.50;22.10;;;;;;;4.58;73.47;97925.64;231904;201;151641;-63
2024/02/08 04:58:23;;;;;;;9.30;6.20;;;;;;;4.58;71.09;97910.71;231757;197;151378;-61
2024/02/08 05:03:36;;;;;;;9.30;6.10;;;;;;;4.55;71.28;97910.02;231651;205;137261;-61
2024/02/08 05:08:46;;;;;;;9.20;5.70;;;;;;;4.57;71.39;97909.39;231943;198;137756;-61
2024/02/08 05:13:50;;;;;;;9.20;6.50;;;;;;;4.57;71.31;97914.64;231723;199;151919;-60
2024/02/08 05:18:55;;;;;;;81.00;62.90;;;;;;;4.64;71.55;97919.32;231704;205;136820;-60
2024/02/08 05:23:59;;;;;;;;;;;;;;;4.77;71.57;97919.81;231816;197;137695;-61
2024/02/08 05:29:02;;;;;;;9.10;6.10;;;;;;;4.80;71.04;97919.30;231785;205;151333;-61
2024/02/08 05:34:07;;;;;;;10.70;6.20;;;;;;;4.76;70.82;97929.38;231815;201;136543;-62
2024/02/08 05:39:23;;;;;;;12.10;6.80;;;;;;;4.66;70.77;97928.88;231656;202;137904;-62
2024/02/08 05:44:29;;;;;;;8.70;6.60;;;;;;;4.61;70.75;97932.66;232048;198;151576;-62
2024/02/08 05:49:35;;;;;;;12.10;7.30;;;;;;;4.58;70.91;97932.84;231779;205;139955;-63
2024/02/08 05:54:43;;;;;;;11.70;7.00;;;;;;;4.54;71.06;97936.60;230933;205;136882;-66
2024/02/08 06:00:00;;;;;;;10.00;6.50;;;;;;;4.60;71.25;97932.39;231704;198;151569;-64
2024/02/08 06:05:17;;;;;;;11.20;7.80;;;;;;;4.65;70.97;97926.66;231630;198;136827;-65
2024/02/08 06:10:23;;;;;;;10.40;7.70;;;;;;;4.69;70.91;97934.33;231991;205;137325;-66
2024/02/08 06:15:34;;;;;;;9.50;6.80;;;;;;;4.75;70.91;97947.71;231759;205;152707;-66
2024/02/08 06:20:40;;;;;;;11.60;8.00;;;;;;;4.75;70.62;97949.30;231848;198;139728;-67
2024/02/08 06:26:01;;;;;;;11.30;8.30;;;;;;;4.76;70.68;97957.67;231759;202;136792;-66
2024/02/08 06:31:06;;;;;;;11.00;7.90;;;;;;;4.79;70.56;97966.64;231725;200;151679;-65
2024/02/08 06:36:09;;;;;;;11.10;8.00;;;;;;;4.77;70.35;97960.95;231739;198;137659;-68
2024/02/08 06:41:23;;;;;;;13.00;8.50;;;;;;;4.73;70.52;97958.33;231717;198;137051;-64
2024/02/08 07:40:36;;;;;;;13.20;9.60;;;;;;;5.13;69.40;97953.61;231698;205;138688;-65
2024/02/08 07:46:03;;;;;;;14.80;10.70;;;;;;;5.12;69.38;97949.99;231816;202;138401;-63
2024/02/08 07:51:08;;;;;;;16.10;10.70;;;;;;;5.16;69.89;97948.72;231714;198;151586;-64
2024/02/08 08:01:32;;;;;;;12.00;9.70;;;;;;;5.30;69.32;97940.17;231697;202;137508;-64
2024/02/08 08:07:00;;;;;;;16.40;10.00;;;;;;;5.36;69.29;97933.48;231735;198;151925;-64
2024/02/08 08:12:04;;;;;;;14.50;10.30;;;;;;;5.51;69.23;97940.67;231685;202;139328;-64
2024/02/08 08:17:08;;;;;;;17.00;11.10;;;;;;;5.62;68.64;97938.43;231720;198;138588;-63
2024/02/08 08:27:27;;;;;;;16.70;10.80;;;;;;;5.92;68.28;97931.40;231641;202;139002;-62
2024/02/08 08:37:44;;;;;;;14.20;10.10;;;;;;;5.97;67.23;97921.27;231368;199;151454;-63
2024/02/08 08:42:54;;;;;;;16.70;10.80;;;;;;;6.01;67.56;97915.88;231911;198;136952;-63
2024/02/08 08:48:00;;;;;;;16.90;11.80;;;;;;;6.08;67.89;97910.33;231788;198;140247;-62
2024/02/08 08:53:16;;;;;;;16.10;11.40;;;;;;;6.13;67.68;97907.21;231851;205;151783;-63
2024/02/08 08:58:27;;;;;;;;;;;;;;;6.12;67.72;97910.29;231792;198;137619;-61
2024/02/08 09:03:33;;;;;;;16.90;10.90;;;;;;;6.14;67.45;97916.45;231955;205;136375;-63
2024/02/08 09:08:54;;;;;;;17.40;11.20;;;;;;;6.14;67.54;97910.47;232029;198;151388;-62
2024/02/08 09:14:09;;;;;;;15.60;11.10;;;;;;;6.14;67.31;97900.99;231799;198;137838;-62
2024/02/08 09:19:15;;;;;;;;;;;;;;;6.22;67.32;97906.86;231558;202;138131;-66
2024/02/08 09:24:19;;;;;;;20.20;13.10;;;;;;;6.26;66.85;97907.06;231854;198;151128;-67
2024/02/08 09:29:25;;;;;;;29.60;15.70;;;;;;;6.31;66.80;97911.52;231666;201;137739;-71
2024/02/08 09:34:38;;;;;;;32.20;15.70;;;;;;;6.27;66.44;97911.97;231817;203;137653;-68
2024/02/08 09:39:53;;;;;;;23.30;15.50;;;;;;;6.24;66.65;97906.02;231844;203;153432;-69
2024/02/08 09:50:37;;;;;;;24.60;13.10;;;;;;;6.41;66.69;97881.51;231820;199;137172;-67
2024/02/08 09:55:55;;;;;;;19.90;13.00;;;;;;;6.48;66.38;97881.20;231785;198;151457;-69
2024/02/08 10:01:21;;;;;;;19.50;11.40;;;;;;;6.55;66.21;97872.09;231754;198;139097;-70
2024/02/08 10:06:38;;;;;;;17.50;9.70;;;;;;;6.73;65.17;97864.81;231856;198;136741;-68
2024/02/08 10:11:45;;;;;;;18.70;10.10;;;;;;;6.82;64.52;97862.63;231771;205;152960;-68
2024/02/08 10:16:50;;;;;;;;;;;;;;;6.78;63.82;97857.26;231794;198;136829;-67
2024/02/08 10:22:17;;;;;;;21.00;10.50;;;;;;;6.71;63.51;97854.20;231989;198;135405;-70
2024/02/08 10:27:22;;;;;;;17.30;10.40;;;;;;;6.64;63.35;97828.93;231509;205;151499;-69
2024/02/08 10:32:29;;;;;;;19.20;11.80;;;;;;;6.52;63.29;97832.31;231841;198;138093;-66
2024/02/08 10:37:47;;;;;;;17.90;9.90;;;;;;;6.47;63.89;97828.60;231645;198;137140;-68
2024/02/08 10:42:53;;;;;;;17.40;8.90;;;;;;;6.46;63.34;97812.65;231709;198;151499;-67
2024/02/08 10:47:59;;;;;;;15.70;7.90;;;;;;;6.40;62.92;97802.82;231635;198;138941;-69
2024/02/08 10:53:04;;;;;;;14.10;7.50;;;;;;;6.43;63.21;97798.89;231796;205;136632;-70
2024/02/08 11:08:50;;;;;;;11.70;7.10;;;;;;;6.46;63.19;97796.77;231850;200;136556;-69
2024/02/08 11:13:54;;;;;;;11.20;7.50;;;;;;;6.46;62.93;97785.20;231791;205;151566;-69
2024/02/08 11:18:57;;;;;;;14.80;6.80;;;;;;;6.47;63.01;97778.42;231760;202;136674;-68
2024/02/08 11:24:03;;;;;;;14.30;5.80;;;;;;;6.56;62.86;97763.20;231787;199;136737;-68
2024/02/08 11:29:18;;;;;;;9.20;6.00;;;;;;;6.57;62.67;97764.69;231749;198;151634;-68
2024/02/08 11:34:33;;;;;;;10.30;5.70;;;;;;;6.54;62.42;97760.67;231699;203;136381;-69
2024/02/08 11:39:40;;;;;;;11.40;5.10;;;;;;;6.50;62.42;97764.07;231920;205;137184;-68
2024/02/08 11:44:45;;;;;;;12.90;5.40;;;;;;;6.49;62.33;97768.96;231953;205;151354;-73
2024/02/08 11:50:00;;;;;;;63.50;39.80;;;;;;;6.42;62.10;97759.85;231753;202;136331;-66
2024/02/08 11:55:13;;;;;;;10.50;5.50;;;;;;;6.37;62.49;97755.76;231764;198;140358;-66
2024/02/08 12:00:18;;;;;;;9.30;4.80;;;;;;;6.38;62.69;97746.77;231606;198;153406;-72
2024/02/08 12:05:21;;;;;;;8.00;4.90;;;;;;;6.33;62.86;97736.34;231725;198;136577;-66
2024/02/08 12:10:25;;;;;;;8.80;4.90;;;;;;;6.32;63.20;97735.15;231781;198;137207;-70
2024/02/08 12:15:28;;;;;;;10.40;5.50;;;;;;;6.29;63.25;97723.05;231679;198;153012;-69
2024/02/08 12:20:32;;;;;;;8.90;5.60;;;;;;;6.28;64.04;97719.20;231337;202;136856;-68
2024/02/08 12:25:36;;;;;;;8.70;5.80;;;;;;;6.35;64.19;97710.13;231854;198;137443;-67
2024/02/08 12:30:41;;;;;;;11.90;6.10;;;;;;;6.39;64.37;97699.78;231730;198;152086;-67
2024/02/08 12:35:44;;;;;;;10.00;5.40;;;;;;;6.43;64.70;97692.02;231814;205;137811;-69
2024/02/08 12:40:49;;;;;;;9.40;5.50;;;;;;;6.46;64.90;97697.46;231781;198;136820;-68
2024/02/08 12:45:54;;;;;;;8.30;5.10;;;;;;;6.53;65.15;97692.41;231762;198;152015;-67
2024/02/08 12:51:03;;;;;;;6.90;4.60;;;;;;;6.53;65.28;97688.63;231767;199;137234;-63
2024/02/08 12:56:10;;;;;;;9.00;5.80;;;;;;;6.48;65.53;97689.01;231914;205;252214;-63
2024/02/08 13:01:18;;;;;;;8.50;5.40;;;;;;;6.48;65.71;97688.52;231715;202;150589;-64
2024/02/08 13:06:22;;;;;;;8.20;4.70;;;;;;;6.39;65.63;97680.30;231647;198;137371;-61
2024/02/08 13:11:25;;;;;;;6.50;4.70;;;;;;;6.25;65.93;97662.88;231771;198;136914;-61
2024/02/08 13:16:33;;;;;;;7.40;4.70;;;;;;;6.17;66.65;97664.29;231723;201;151951;-63
2024/02/08 13:21:38;;;;;;;23.30;11.90;;;;;;;6.15;67.30;97666.52;231737;198;136550;-63
2024/02/08 13:26:41;;;;;;;5.90;4.10;;;;;;;6.13;67.27;97662.98;231655;198;136795;-64
2024/02/08 13:31:44;;;;;;;6.70;3.80;;;;;;;6.02;67.49;97669.86;231764;198;151462;-64
2024/02/08 13:36:48;;;;;;;7.70;3.70;;;;;;;5.92;67.98;97659.77;231619;198;136864;-63
2024/02/08 13:41:52;;;;;;;7.10;3.10;;;;;;;5.86;68.32;97654.12;231781;198;137600;-64
2024/02/08 13:46:55;;;;;;;5.90;3.70;;;;;;;5.91;68.61;97641.67;231634;202;151539;-64
2024/02/08 13:51:59;;;;;;;5.60;3.40;;;;;;;6.02;68.50;97635.39;231835;198;137072;-64
2024/02/08 13:57:12;;;;;;;10.50;3.80;;;;;;;5.99;68.61;97634.20;231879;202;137389;-63
2024/02/08 14:02:19;;;;;;;7.20;3.70;;;;;;;5.98;68.60;97634.26;232024;197;151953;-64
2024/02/08 14:07:31;;;;;;;246.30;157.20;;;;;;;5.92;68.82;97636.01;231806;198;137666;-68
2024/02/08 14:12:34;;;;;;;26.70;14.50;;;;;;;5.97;69.38;97634.29;231753;202;137930;-65
2024/02/08 14:17:41;;;;;;;6.70;4.80;;;;;;;5.94;68.86;97628.83;231684;198;151315;-66
2024/02/08 14:22:45;;;;;;;7.00;4.20;;;;;;;5.85;68.69;97626.91;231684;197;136706;-65
2024/02/08 14:27:48;;;;;;;5.40;3.80;;;;;;;5.77;69.12;97621.64;231854;201;136602;-64
2024/02/08 14:32:51;;;;;;;5.50;3.40;;;;;;;5.72;69.47;97620.27;231828;202;151213;-65
2024/02/08 14:37:55;;;;;;;5.00;3.60;;;;;;;5.73;69.57;97617.88;231689;198;136228;-66
2024/02/08 14:42:58;;;;;;;6.80;3.70;;;;;;;5.74;69.73;97611.80;231733;198;138716;-65
2024/02/08 14:48:02;;;;;;;4.60;3.60;;;;;;;5.82;69.91;97612.72;231583;198;151298;-65
2024/02/08 14:53:06;;;;;;;7.80;4.30;;;;;;;5.89;69.87;97614.17;231704;203;139031;-65
2024/02/08 14:58:31;;;;;;;8.00;4.40;;;;;;;5.91;69.96;97613.52;231639;198;137695;-65
2024/02/08 15:03:43;;;;;;;6.00;4.00;;;;;;;5.95;70.00;97605.91;231828;198;151360;-65
2024/02/08 15:08:54;;;;;;;6.00;4.00;;;;;;;5.95;70.06;97597.66;231822;202;136721;-66
2024/02/08 15:14:02;;;;;;;4.50;3.80;;;;;;;5.91;70.13;97597.67;231738;198;137339;-65
2024/02/08 15:19:05;;;;;;;6.00;4.20;;;;;;;5.87;70.13;97596.71;231766;198;153292;-66
2024/02/08 15:29:36;;;;;;;6.40;4.90;;;;;;;5.79;70.48;97594.96;231732;205;137378;-65
2024/02/08 15:40:10;;;;;;;7.50;5.10;;;;;;;5.67;71.01;97595.41;231809;205;137275;-65
2024/02/08 15:45:14;;;;;;;8.50;5.20;;;;;;;5.69;70.94;97593.48;231810;198;137084;-65
2024/02/08 15:50:21;;;;;;;8.80;6.30;;;;;;;5.76;70.82;97585.12;231896;205;152352;-65
2024/02/08 15:55:38;;;;;;;9.60;6.40;;;;;;;5.80;70.68;97580.98;231689;198;137772;-65
2024/02/08 16:06:41;;;;;;;13.00;7.30;;;;;;;5.80;70.60;97575.50;231620;198;151500;-64
2024/02/08 16:11:30;;;;;;;11.20;7.40;;;;;;;5.77;70.69;97578.55;231727;198;138026;-61
2024/02/08 16:16:34;;;;;;;9.60;7.10;;;;;;;5.72;70.65;97579.05;231768;199;138605;-62
2024/02/08 16:21:39;;;;;;;8.40;6.70;;;;;;;5.69;70.86;97575.91;231835;199;151399;-60
2024/02/08 16:26:53;;;;;;;9.20;7.00;;;;;;;5.67;70.99;97582.88;231986;205;136602;-61
2024/02/08 16:31:56;;;;;;;10.80;7.30;;;;;;;5.65;70.90;97582.85;231861;202;136796;-61
2024/02/08 16:37:03;;;;;;;8.10;6.20;;;;;;;5.60;70.95;97582.15;231498;198;153865;-60
2024/02/08 16:42:17;;;;;;;8.90;6.10;;;;;;;5.63;70.99;97579.67;231722;198;136732;-62
2024/02/08 16:47:27;;;;;;;8.30;6.50;;;;;;;5.63;70.88;97579.08;231625;198;137009;-62
2024/02/08 16:52:41;;;;;;;22.70;13.00;;;;;;;5.66;71.07;97579.99;231798;198;152645;-62
2024/02/08 16:57:51;;;;;;;8.80;7.00;;;;;;;5.69;71.04;97571.48;231685;197;137731;-63
2024/02/08 17:03:04;;;;;;;10.30;7.40;;;;;;;5.65;71.07;97562.12;231910;205;138673;-62
2024/02/08 17:08:14;;;;;;;10.90;6.80;;;;;;;5.65;71.17;97556.27;231765;205;152243;-62
2024/02/08 17:13:21;;;;;;;9.90;7.40;;;;;;;5.64;71.15;97552.67;231705;205;138882;-62
2024/02/08 17:18:24;;;;;;;10.50;7.40;;;;;;;5.63;71.00;97552.86;231300;205;138468;-62
2024/02/08 17:23:41;;;;;;;10.70;8.60;;;;;;;5.58;71.17;97545.28;230683;200;152179;-61
2024/02/08 17:34:12;;;;;;;11.00;9.10;;;;;;;5.47;71.49;97555.70;231697;202;136664;-68
2024/02/08 17:39:24;;;;;;;12.20;9.70;;;;;;;5.41;71.42;97556.42;231882;198;151587;-70
2024/02/08 17:44:37;;;;;;;12.60;9.70;;;;;;;5.42;71.81;97546.19;231780;198;137223;-67
2024/02/08 17:49:41;;;;;;;13.70;10.30;;;;;;;5.52;71.82;97544.34;231586;203;138246;-65
2024/02/08 17:54:51;;;;;;;13.00;10.30;;;;;;;5.59;71.60;97530.15;231639;198;152603;-68
2024/02/08 17:59:58;;;;;;;14.90;11.60;;;;;;;5.63;71.61;97524.23;231617;201;137134;-67
2024/02/08 18:05:08;;;;;;;14.90;11.20;;;;;;;5.65;71.49;97520.05;231752;205;137475;-65
2024/02/08 18:10:19;;;;;;;15.40;10.60;;;;;;;5.65;71.50;97518.48;231627;203;151667;-64
2024/02/08 18:15:26;;;;;;;14.40;10.30;;;;;;;5.66;71.52;97503.98;231606;203;140572;-65
2024/02/08 18:20:33;;;;;;;14.60;10.20;;;;;;;5.66;71.50;97492.72;231903;201;137120;-65
2024/02/08 18:25:37;;;;;;;222.00;160.30;;;;;;;5.65;71.57;97485.78;231765;198;151734;-67
2024/02/08 18:30:45;;;;;;;32.70;22.00;;;;;;;5.75;72.48;97479.96;231628;198;249489;-68
2024/02/08 18:35:48;;;;;;;12.10;9.40;;;;;;;5.87;71.65;97466.33;231638;199;138419;-68
2024/02/08 18:40:56;;;;;;;13.00;8.90;;;;;;;5.80;71.24;97458.17;231723;205;151533;-63
2024/02/08 18:46:05;;;;;;;13.30;9.00;;;;;;;5.87;71.09;97451.36;231784;201;140181;-64
2024/02/08 18:51:11;;;;;;;427.80;297.60;;;;;;;6.00;73.38;97448.89;231723;199;138063;-65
2024/02/08 18:56:18;;;;;;;16.20;11.90;;;;;;;6.28;71.94;97451.01;231500;200;153586;-64
2024/02/08 19:01:24;;;;;;;14.50;9.70;;;;;;;6.13;70.84;97442.73;231626;198;138399;-64
2024/02/08 19:06:31;;;;;;;14.90;10.50;;;;;;;6.04;70.61;97432.96;231771;198;138118;-64
2024/02/08 19:11:39;;;;;;;;;;;;;;;5.89;70.75;97427.98;231628;198;151142;-64
2024/02/08 19:16:44;;;;;;;15.20;10.70;;;;;;;5.80;70.96;97426.49;231474;206;135799;-65
2024/02/08 19:21:47;;;;;;;16.20;11.50;;;;;;;5.69;71.31;97419.17;231805;205;137433;-65
2024/02/08 19:26:50;;;;;;;15.90;11.40;;;;;;;5.58;71.55;97416.76;231955;205;151488;-64
2024/02/08 19:31:55;;;;;;;14.40;10.70;;;;;;;5.53;71.95;97409.84;231652;198;137408;-64
2024/02/08 19:36:58;;;;;;;16.90;12.50;;;;;;;5.56;72.13;97408.09;231606;202;137772;-64
2024/02/08 19:42:04;;;;;;;13.60;10.30;;;;;;;5.64;72.13;97399.77;231754;199;154040;-64
2024/02/08 19:47:20;;;;;;;;;;;;;;;5.66;71.75;97390.16;231702;202;136918;-65
2024/02/08 19:52:28;;;;;;;13.60;10.30;;;;;;;5.60;71.74;97383.53;231858;203;136517;-64
2024/02/08 19:57:39;;;;;;;29.20;19.50;;;;;;;5.64;73.05;97377.80;231710;198;152124;-66
2024/02/08 20:02:43;;;;;;;16.70;11.30;;;;;;;5.69;72.05;97372.00;231802;205;136973;-70
2024/02/08 20:07:46;;;;;;;15.70;11.70;;;;;;;5.62;72.00;97375.79;231804;202;137530;-71
2024/02/08 20:12:52;;;;;;;17.30;12.80;;;;;;;5.57;71.91;97375.11;231808;205;152751;-70
2024/02/08 20:17:58;;;;;;;;;;;;;;;5.55;72.12;97366.81;231664;199;137556;-71
2024/02/08 20:23:10;;;;;;;17.10;12.10;;;;;;;5.52;72.21;97365.75;231693;206;136437;-71
2024/02/08 20:28:13;;;;;;;18.30;11.80;;;;;;;5.50;72.33;97368.23;230729;206;151217;-67
2024/02/08 20:33:18;;;;;;;15.10;10.90;;;;;;;5.52;72.57;97361.73;231647;199;137859;-68
2024/02/08 20:38:24;;;;;;;16.00;12.00;;;;;;;5.60;72.49;97362.05;231835;205;138312;-72
2024/02/08 20:43:28;;;;;;;17.70;11.80;;;;;;;5.64;72.36;97359.70;231671;199;151193;-70
2024/02/08 20:48:34;;;;;;;15.80;11.40;;;;;;;5.66;72.38;97358.48;231152;203;137386;-68
2024/02/08 20:53:37;;;;;;;15.70;10.60;;;;;;;5.64;72.21;97356.69;231616;199;137304;-71
2024/02/08 20:58:41;;;;;;;15.60;10.60;;;;;;;5.62;72.26;97350.30;231704;198;151955;-71
2024/02/08 21:03:44;;;;;;;13.70;10.30;;;;;;;5.62;72.40;97348.73;231655;206;137536;-69
2024/02/08 21:08:51;;;;;;;15.90;11.40;;;;;;;5.60;72.53;97344.83;231876;198;138981;-69
2024/02/08 21:13:54;;;;;;;16.10;11.60;;;;;;;5.56;72.68;97331.89;231699;203;152518;-69
2024/02/08 21:18:58;;;;;;;18.20;11.80;;;;;;;5.54;72.71;97317.95;231708;199;137336;-68
2024/02/08 21:24:04;;;;;;;15.20;10.90;;;;;;;5.53;72.83;97309.76;231718;200;137081;-70
2024/02/08 21:29:10;;;;;;;;;;;;;;;5.56;73.07;97297.05;231668;198;153471;-72
2024/02/08 21:34:14;;;;;;;17.90;12.60;;;;;;;5.66;72.93;97289.52;231723;199;136807;-71
2024/02/08 21:39:19;;;;;;;20.80;13.90;;;;;;;5.69;72.85;97287.15;231279;205;137674;-71
2024/02/08 21:44:25;;;;;;;18.00;12.90;;;;;;;5.76;72.71;97292.00;231805;198;151073;-70
2024/02/08 21:49:29;;;;;;;19.10;13.00;;;;;;;5.76;72.78;97290.73;231651;206;137801;-70
2024/02/08 21:54:32;;;;;;;17.40;13.00;;;;;;;5.81;72.65;97279.51;231641;199;140484;-72
2024/02/08 21:59:38;;;;;;;16.70;12.70;;;;;;;5.81;72.58;97272.45;231705;202;151315;-71
2024/02/08 22:04:41;;;;;;;15.90;12.30;;;;;;;5.76;72.64;97272.79;231668;199;137631;-71
2024/02/08 22:09:44;;;;;;;18.80;12.50;;;;;;;5.71;72.75;97286.55;231723;198;137182;-71
2024/02/08 22:14:49;;;;;;;17.30;12.70;;;;;;;5.68;72.92;97297.13;231760;199;151694;-71
2024/02/08 22:19:52;;;;;;;16.50;11.70;;;;;;;5.64;73.03;97290.86;231664;198;137753;-70
2024/02/08 22:24:57;;;;;;;16.70;12.10;;;;;;;5.63;73.31;97292.55;231648;198;137107;-70
2024/02/08 22:30:02;;;;;;;12.20;10.50;;;;;;;5.62;73.34;97285.04;231613;199;151088;-68
2024/02/08 22:35:07;;;;;;;17.40;12.10;;;;;;;5.68;73.50;97278.31;231672;206;136869;-69
2024/02/08 22:40:11;;;;;;;16.70;12.20;;;;;;;5.72;73.45;97272.02;231677;202;136802;-69
2024/02/08 22:45:18;;;;;;;18.00;12.50;;;;;;;5.74;73.51;97270.86;232023;206;151737;-69
2024/02/08 22:50:22;;;;;;;18.40;12.90;;;;;;;5.74;73.53;97267.34;231860;198;136895;-68
2024/02/08 22:55:28;;;;;;;18.10;13.60;;;;;;;5.73;73.44;97252.61;231685;202;136913;-68
2024/02/08 23:00:47;;;;;;;17.50;12.20;;;;;;;5.71;73.41;97247.43;231677;199;151667;-67
2024/02/08 23:05:57;;;;;;;17.80;13.00;;;;;;;5.63;73.52;97245.20;231686;199;137763;-67
2024/02/08 23:11:01;;;;;;;17.90;12.60;;;;;;;5.56;73.77;97245.39;231765;206;137550;-68
2024/02/08 23:16:07;;;;;;;19.40;13.10;;;;;;;5.50;74.09;97246.17;231670;199;152239;-68
2024/02/08 23:21:11;;;;;;;19.00;12.50;;;;;;;5.56;74.35;97243.44;231804;199;137670;-69
2024/02/08 23:26:15;;;;;;;18.10;14.20;;;;;;;5.66;74.21;97243.09;231728;199;137290;-67
2024/02/08 23:31:18;;;;;;;19.80;14.30;;;;;;;5.70;74.11;97246.23;231723;199;151709;-71
2024/02/08 23:36:23;;;;;;;22.90;14.80;;;;;;;5.75;74.10;97249.48;231601;203;139120;-68
2024/02/08 23:41:29;;;;;;;18.00;13.60;;;;;;;5.74;73.93;97247.79;231716;202;136734;-67
2024/02/08 23:46:32;;;;;;;21.30;15.20;;;;;;;5.76;74.07;97244.52;231751;198;151565;-71
2024/02/08 23:51:38;;;;;;;;;;;;;;;5.74;73.94;97274.54;231745;202;137718;-69
2024/02/08 23:56:42;;;;;;;18.30;13.90;;;;;;;5.65;74.03;97261.65;231899;199;135768;-68
